createdAt,value
2019-06-01T00:02:24.571Z,99.90
2019-06-01T00:04:53.772Z,99.90
2019-06-01T00:07:29.845Z,99.90
2019-06-01T00:10:00.647Z,99.90
2019-06-01T00:12:29.842Z,99.90
2019-06-01T00:15:05.795Z,99.90
2019-06-01T00:17:35.277Z,99.90
2019-06-01T00:20:11.024Z,99.90
2019-06-01T00:22:41.179Z,99.90
2019-06-01T00:25:16.870Z,99.90
2019-06-01T00:27:46.729Z,99.90
2019-06-01T00:30:26.939Z,99.90
2019-06-01T00:32:53.848Z,99.90
2019-06-01T00:35:36.498Z,99.90
2019-06-01T00:38:05.625Z,99.90
2019-06-01T00:40:34.879Z,99.90
2019-06-01T00:43:10.377Z,99.90
2019-06-01T00:45:39.505Z,99.90
2019-06-01T00:48:14.977Z,99.90
2019-06-01T00:50:44.911Z,99.90
2019-06-01T00:53:20.673Z,99.90
2019-06-01T00:55:49.874Z,99.90
2019-06-01T00:58:25.930Z,99.90
2019-06-01T01:00:55.281Z,99.90
2019-06-01T01:03:30.803Z,99.90
2019-06-01T01:05:59.950Z,99.90
2019-06-01T01:08:35.877Z,99.90
2019-06-01T01:11:05.078Z,99.90
2019-06-01T01:13:34.289Z,99.90
2019-06-01T01:16:09.845Z,99.90
2019-06-01T01:18:38.988Z,99.90
2019-06-01T01:21:15.868Z,99.90
2019-06-01T01:23:46.111Z,99.90
2019-06-01T01:26:15.421Z,99.90
2019-06-01T01:28:52.713Z,99.90
2019-06-01T01:31:28.416Z,99.90
2019-06-01T01:34:04.595Z,99.90
2019-06-01T01:36:34.115Z,99.90
2019-06-01T01:39:09.463Z,99.90
2019-06-01T01:41:38.729Z,99.90
2019-06-01T01:44:07.878Z,99.90
2019-06-01T01:46:44.013Z,99.90
2019-06-01T01:49:13.131Z,99.90
2019-06-01T01:51:48.867Z,99.90
2019-06-01T01:54:17.972Z,99.90
2019-06-01T01:56:54.154Z,99.90
2019-06-01T01:59:30.839Z,99.90
2019-06-01T02:02:06.279Z,99.90
2019-06-01T02:04:35.490Z,99.90
2019-06-01T02:07:11.146Z,99.90
2019-06-01T02:09:40.294Z,99.90
2019-06-01T02:12:15.967Z,99.90
2019-06-01T02:14:45.058Z,99.90
2019-06-01T02:17:14.264Z,99.90
2019-06-01T02:19:49.591Z,99.90
2019-06-01T02:22:18.718Z,99.90
2019-06-01T02:24:55.787Z,99.90
2019-06-01T02:27:24.986Z,99.90
2019-06-01T02:30:04.947Z,99.90
2019-06-01T02:32:38.618Z,99.90
2019-06-01T02:35:15.712Z,99.90
2019-06-01T02:37:44.997Z,99.90
2019-06-01T02:40:14.307Z,99.90
2019-06-01T02:42:49.763Z,99.90
2019-06-01T02:45:19.781Z,99.90
2019-06-01T02:47:55.438Z,99.90
2019-06-01T02:50:24.660Z,99.90
2019-06-01T02:53:01.506Z,99.90
2019-06-01T02:55:30.872Z,99.90
2019-06-01T02:58:06.820Z,99.90
2019-06-01T03:01:31.196Z,99.90
2019-06-01T03:04:08.478Z,99.90
2019-06-01T03:06:41.142Z,99.90
2019-06-01T03:09:11.324Z,99.90
2019-06-01T03:11:48.054Z,99.90
2019-06-01T03:14:19.224Z,99.90
2019-06-01T03:16:59.635Z,99.90
2019-06-01T03:19:31.431Z,99.90
2019-06-01T03:22:08.722Z,99.90
2019-06-01T03:24:37.925Z,99.90
2019-06-01T03:27:13.493Z,99.90
2019-06-01T03:29:45.953Z,99.90
2019-06-01T03:32:35.262Z,99.90
2019-06-01T03:35:00.543Z,99.90
2019-06-01T03:37:37.859Z,99.90
2019-06-01T03:40:15.636Z,99.90
2019-06-01T03:42:45.204Z,99.90
2019-06-01T03:45:14.864Z,99.90
2019-06-01T03:47:50.678Z,99.90
2019-06-01T03:50:19.774Z,99.90
2019-06-01T03:52:55.354Z,99.90
2019-06-01T03:55:24.514Z,99.90
2019-06-01T03:58:00.925Z,99.90
2019-06-01T04:00:37.878Z,99.90
2019-06-01T04:03:13.457Z,99.90
2019-06-01T04:05:42.595Z,99.90
2019-06-01T04:08:11.799Z,99.90
2019-06-01T04:10:47.034Z,99.90
2019-06-01T04:13:16.156Z,99.90
2019-06-01T04:15:52.244Z,99.90
2019-06-01T04:18:21.190Z,99.90
2019-06-01T04:20:57.359Z,99.90
2019-06-01T04:23:26.506Z,99.90
2019-06-01T04:26:02.500Z,99.90
2019-06-01T04:28:38.032Z,99.90
2019-06-01T04:31:14.438Z,99.90
2019-06-01T04:33:43.636Z,99.90
2019-06-01T04:36:19.303Z,99.90
2019-06-01T04:38:48.502Z,99.90
2019-06-01T04:41:17.733Z,99.90
2019-06-01T04:43:53.041Z,99.90
2019-06-01T04:46:22.287Z,99.90
2019-06-01T04:48:57.674Z,99.90
2019-06-01T04:51:26.793Z,99.90
2019-06-01T04:53:55.965Z,99.90
2019-06-01T04:56:31.902Z,99.90
2019-06-01T04:59:08.876Z,99.90
2019-06-01T05:01:51.599Z,99.90
2019-06-01T05:04:21.120Z,99.90
2019-06-01T05:06:56.506Z,99.90
2019-06-01T05:09:25.647Z,99.90
2019-06-01T05:12:02.022Z,99.90
2019-06-01T05:14:31.236Z,99.90
2019-06-01T05:17:00.496Z,99.90
2019-06-01T05:19:35.964Z,99.90
2019-06-01T05:22:06.346Z,99.90
2019-06-01T05:24:42.610Z,99.90
2019-06-01T05:27:13.061Z,99.90
2019-06-01T05:29:55.318Z,99.90
2019-06-01T05:32:24.513Z,99.90
2019-06-01T05:35:00.226Z,99.90
2019-06-01T05:37:29.370Z,99.90
2019-06-01T05:39:58.513Z,99.90
2019-06-01T05:42:34.159Z,99.90
2019-06-01T05:45:11.180Z,99.90
2019-06-01T05:47:40.573Z,99.90
2019-06-01T05:50:10.631Z,99.90
2019-06-01T05:52:46.772Z,99.90
2019-06-01T05:55:16.774Z,99.90
2019-06-01T05:57:46.073Z,99.90
2019-06-01T06:00:22.510Z,99.90
2019-06-01T06:02:54.138Z,99.90
2019-06-01T06:05:30.275Z,99.90
2019-06-01T06:07:59.522Z,99.90
2019-06-01T06:10:34.972Z,99.90
2019-06-01T06:13:04.349Z,99.90
2019-06-01T06:15:40.471Z,99.90
2019-06-01T06:18:09.588Z,99.90
2019-06-01T06:20:39.087Z,99.90
2019-06-01T06:23:14.611Z,99.90
2019-06-01T06:25:50.897Z,99.90
2019-06-01T06:28:26.818Z,99.90
2019-06-01T06:30:56.163Z,99.90
2019-06-01T06:33:32.401Z,99.90
2019-06-01T06:36:01.606Z,99.90
2019-06-01T06:38:30.855Z,99.90
2019-06-01T06:41:06.275Z,99.90
2019-06-01T06:43:35.403Z,99.90
2019-06-01T06:46:11.005Z,99.90
2019-06-01T06:48:40.124Z,99.90
2019-06-01T06:51:17.264Z,99.90
2019-06-01T06:53:46.576Z,99.90
2019-06-01T06:56:22.107Z,99.90
2019-06-01T06:58:51.217Z,99.90
2019-06-01T07:01:34.529Z,99.90
2019-06-01T07:04:12.947Z,99.90
2019-06-01T07:06:47.986Z,99.90
2019-06-01T07:09:17.885Z,99.90
2019-06-01T07:11:47.225Z,99.90
2019-06-01T07:14:23.495Z,99.90
2019-06-01T07:16:52.700Z,99.90
2019-06-01T07:19:35.870Z,99.90
2019-06-01T07:22:04.970Z,99.90
2019-06-01T07:24:40.368Z,99.90
2019-06-01T07:27:09.483Z,99.90
2019-06-01T07:29:38.610Z,99.90
2019-06-01T07:32:14.720Z,99.90
2019-06-01T07:34:43.839Z,99.90
2019-06-01T07:37:20.669Z,99.90
2019-06-01T07:39:50.118Z,99.90
2019-06-01T07:42:26.638Z,99.90
2019-06-01T07:44:56.546Z,99.90
2019-06-01T07:47:27.204Z,99.90
2019-06-01T07:50:03.806Z,99.90
2019-06-01T07:52:39.598Z,99.90
2019-06-01T07:55:08.722Z,99.90
2019-06-01T07:57:37.726Z,99.90
2019-06-01T08:00:13.626Z,99.90
2019-06-01T08:02:49.328Z,99.90
2019-06-01T08:05:32.280Z,99.90
2019-06-01T08:08:02.739Z,99.90
2019-06-01T08:10:38.630Z,99.90
2019-06-01T08:13:07.742Z,99.90
2019-06-01T08:15:43.576Z,99.90
2019-06-01T08:18:12.725Z,99.90
2019-06-01T08:20:54.900Z,99.90
2019-06-01T08:23:24.182Z,99.90
2019-06-01T08:25:53.337Z,99.90
2019-06-01T08:28:29.085Z,99.90
2019-06-01T08:30:58.391Z,99.90
2019-06-01T08:33:35.008Z,99.90
2019-06-01T08:36:04.244Z,99.90
2019-06-01T08:38:39.796Z,99.90
2019-06-01T08:41:08.799Z,99.90
2019-06-01T08:43:44.386Z,99.90
2019-06-01T08:46:15.359Z,99.90
2019-06-01T08:48:50.926Z,99.90
2019-06-01T08:51:20.084Z,99.90
2019-06-01T08:53:56.438Z,99.90
2019-06-01T08:56:26.208Z,99.90
2019-06-01T08:58:55.575Z,99.90
2019-06-01T09:01:32.780Z,99.90
2019-06-01T09:04:09.496Z,99.90
2019-06-01T09:06:44.836Z,99.90
2019-06-01T09:09:14.056Z,99.90
2019-06-01T09:11:49.884Z,99.90
2019-06-01T09:14:20.617Z,99.90
2019-06-01T09:16:56.462Z,99.90
2019-06-01T09:19:25.614Z,99.30
2019-06-01T09:22:08.249Z,97.30
2019-06-01T09:24:37.531Z,96.80
2019-06-01T09:27:06.831Z,96.50
2019-06-01T09:29:44.758Z,97.60
2019-06-01T09:32:13.443Z,95.90
2019-06-01T09:34:49.309Z,96.30
2019-06-01T09:37:18.943Z,96.40
2019-06-01T09:39:54.462Z,94.70
2019-06-01T09:42:23.596Z,95.20
2019-06-01T09:44:59.064Z,93.10
2019-06-01T09:47:29.023Z,93.00
2019-06-01T09:49:58.347Z,89.90
2019-06-01T09:52:35.464Z,87.00
2019-06-01T09:55:05.059Z,86.50
2019-06-01T09:57:40.635Z,90.80
2019-06-01T10:00:10.898Z,86.90
2019-06-01T10:02:54.595Z,83.90
2019-06-01T10:05:30.293Z,82.40
2019-06-01T10:08:06.116Z,81.80
2019-06-01T10:10:35.988Z,84.90
2019-06-01T10:13:07.673Z,84.20
2019-06-01T10:15:43.343Z,83.90
2019-06-01T10:18:12.487Z,87.30
2019-06-01T10:20:47.906Z,88.70
2019-06-01T10:23:49.633Z,90.20
2019-06-01T10:26:24.060Z,89.60
2019-06-01T10:28:53.197Z,89.50
2019-06-01T10:31:28.906Z,89.20
2019-06-01T10:33:58.149Z,91.20
2019-06-01T10:36:27.378Z,91.10
2019-06-01T10:39:04.001Z,92.60
2019-06-01T10:41:35.314Z,93.10
2019-06-01T10:44:04.745Z,93.60
2019-06-01T10:46:42.188Z,94.70
2019-06-01T10:49:11.550Z,93.80
2019-06-01T10:51:47.652Z,94.60
2019-06-01T10:54:16.872Z,94.90
2019-06-01T10:56:53.489Z,96.60
2019-06-01T10:59:28.674Z,94.70
2019-06-01T11:02:04.052Z,94.30
2019-06-01T11:04:41.183Z,95.90
2019-06-01T11:07:16.956Z,94.90
2019-06-01T11:09:46.094Z,96.70
2019-06-01T11:12:23.862Z,99.90
2019-06-01T11:14:53.139Z,99.80
2019-06-01T11:17:22.311Z,99.90
2019-06-01T11:19:57.774Z,99.90
2019-06-01T11:22:33.581Z,98.50
2019-06-01T11:25:08.937Z,99.90
2019-06-01T11:27:39.614Z,99.90
2019-06-01T11:30:15.581Z,99.90
2019-06-01T11:32:45.168Z,98.30
2019-06-01T11:35:14.997Z,98.40
2019-06-01T11:37:51.398Z,98.20
2019-06-01T11:40:27.940Z,97.80
2019-06-01T11:42:57.120Z,99.90
2019-06-01T11:45:26.223Z,98.80
2019-06-01T11:48:02.510Z,99.90
2019-06-01T11:50:35.127Z,99.90
2019-06-01T11:53:10.815Z,99.90
2019-06-01T11:55:41.281Z,98.60
2019-06-01T11:58:18.864Z,98.70
2019-06-01T12:00:48.251Z,96.90
2019-06-01T12:03:24.383Z,99.80
2019-06-01T12:06:00.373Z,99.90
2019-06-01T12:08:36.021Z,99.90
2019-06-01T12:11:05.743Z,99.90
2019-06-01T12:13:36.001Z,99.90
2019-06-01T12:16:11.704Z,99.90
2019-06-01T12:18:40.909Z,99.90
2019-06-01T12:21:16.834Z,99.90
2019-06-01T12:23:53.086Z,99.90
2019-06-01T12:26:28.717Z,99.90
2019-06-01T12:28:57.912Z,99.90
2019-06-01T12:31:34.133Z,99.90
2019-06-01T12:34:03.236Z,99.90
2019-06-01T12:36:32.351Z,99.90
2019-06-01T12:39:08.086Z,99.90
2019-06-01T12:41:37.581Z,99.90
2019-06-01T12:44:21.214Z,99.90
2019-06-01T12:46:50.435Z,99.90
2019-06-01T12:49:26.148Z,99.90
2019-06-01T12:51:55.346Z,99.90
2019-06-01T12:54:31.068Z,99.90
2019-06-01T12:57:00.610Z,99.90
2019-06-01T12:59:36.521Z,99.90
2019-06-01T13:02:05.631Z,99.90
2019-06-01T13:04:49.334Z,99.90
2019-06-01T13:07:24.695Z,99.90
2019-06-01T13:10:01.013Z,99.90
2019-06-01T13:12:30.250Z,99.90
2019-06-01T13:15:00.465Z,99.90
2019-06-01T13:17:36.005Z,99.90
2019-06-01T13:20:05.662Z,99.90
2019-06-01T13:22:47.966Z,99.90
2019-06-01T13:25:17.281Z,99.90
2019-06-01T13:27:52.774Z,99.90
2019-06-01T13:30:21.996Z,99.90
2019-06-01T13:32:52.633Z,99.90
2019-06-01T13:35:28.005Z,99.90
2019-06-01T13:38:11.575Z,99.90
2019-06-01T13:40:34.553Z,99.20
2019-06-01T13:43:03.850Z,99.90
2019-06-01T13:45:39.741Z,99.90
2019-06-01T13:48:10.042Z,99.90
2019-06-01T13:50:46.368Z,99.90
2019-06-01T13:53:15.482Z,99.90
2019-06-01T13:55:50.837Z,99.90
2019-06-01T13:58:19.965Z,99.90
2019-06-01T14:00:56.188Z,99.90
2019-06-01T14:03:25.516Z,99.90
2019-06-01T14:06:08.388Z,99.90
2019-06-01T14:08:44.987Z,99.90
2019-06-01T14:11:20.748Z,99.90
2019-06-01T14:13:49.980Z,99.90
2019-06-01T14:16:19.300Z,99.90
2019-06-01T14:18:55.982Z,99.00
2019-06-01T14:21:31.297Z,99.90
2019-06-01T14:24:06.979Z,99.90
2019-06-01T14:26:42.901Z,99.90
2019-06-01T14:29:12.013Z,99.90
2019-06-01T14:31:48.531Z,99.90
2019-06-01T14:34:17.819Z,99.90
2019-06-01T14:36:47.010Z,99.90
2019-06-01T14:39:24.656Z,99.90
2019-06-01T14:41:53.757Z,99.90
2019-06-01T14:44:28.989Z,99.90
2019-06-01T14:47:03.758Z,99.90
2019-06-01T14:49:35.887Z,99.90
2019-06-01T14:52:10.015Z,99.90
2019-06-01T14:54:46.007Z,99.90
2019-06-01T14:57:15.151Z,99.90
2019-06-01T14:59:50.472Z,99.90
2019-06-01T15:02:19.639Z,99.90
2019-06-01T15:04:56.446Z,99.90
2019-06-01T15:07:32.571Z,99.90
2019-06-01T15:10:08.236Z,99.90
2019-06-01T15:12:37.567Z,99.90
2019-06-01T15:15:14.325Z,99.90
2019-06-01T15:17:44.033Z,99.90
2019-06-01T15:20:21.356Z,99.90
2019-06-01T15:22:50.597Z,99.90
2019-06-01T15:25:32.978Z,99.90
2019-06-01T15:28:03.819Z,99.90
2019-06-01T15:30:33.134Z,99.90
2019-06-01T15:33:09.225Z,99.90
2019-06-01T15:35:45.246Z,99.90
2019-06-01T15:38:14.415Z,99.90
2019-06-01T15:40:51.752Z,99.90
2019-06-01T15:43:21.012Z,99.90
2019-06-01T15:45:57.556Z,99.90
2019-06-01T15:48:26.776Z,99.90
2019-06-01T15:51:07.008Z,99.90
2019-06-01T15:53:34.335Z,99.90
2019-06-01T15:56:03.612Z,99.90
2019-06-01T15:58:52.312Z,99.90
2019-06-01T16:01:10.732Z,99.90
2019-06-01T16:03:46.086Z,99.90
2019-06-01T16:06:22.203Z,99.90
2019-06-01T16:09:04.816Z,99.90
2019-06-01T16:11:34.033Z,99.90
2019-06-01T16:14:10.180Z,99.90
2019-06-01T16:16:39.624Z,99.90
2019-06-01T16:19:15.811Z,99.90
2019-06-01T16:21:45.154Z,99.90
2019-06-01T16:24:29.859Z,99.90
2019-06-01T16:27:00.161Z,99.90
2019-06-01T16:29:36.202Z,99.90
2019-06-01T16:32:06.407Z,99.90
2019-06-01T16:34:41.969Z,99.90
2019-06-01T16:37:11.169Z,99.90
2019-06-01T16:39:40.569Z,99.90
2019-06-01T16:42:15.940Z,99.90
2019-06-01T16:44:51.934Z,99.90
2019-06-01T16:47:21.206Z,99.90
2019-06-01T16:49:50.386Z,99.90
2019-06-01T16:52:26.313Z,99.90
2019-06-01T16:54:56.173Z,99.90
2019-06-01T16:57:32.851Z,99.90
2019-06-01T17:00:02.775Z,99.90
2019-06-01T17:02:38.793Z,99.90
2019-06-01T17:05:08.427Z,99.90
2019-06-01T17:07:44.372Z,99.90
2019-06-01T17:10:25.534Z,99.90
2019-06-01T17:12:52.814Z,99.90
2019-06-01T17:15:22.072Z,99.90
2019-06-01T17:18:03.043Z,99.90
2019-06-01T17:20:39.979Z,99.90
2019-06-01T17:23:26.917Z,99.90
2019-06-01T17:25:58.409Z,99.90
2019-06-01T17:28:34.192Z,99.90
2019-06-01T17:31:04.306Z,99.90
2019-06-01T17:33:33.624Z,99.90
2019-06-01T17:36:09.652Z,99.90
2019-06-01T17:38:38.889Z,99.90
2019-06-01T17:41:14.428Z,99.90
2019-06-01T17:43:43.696Z,99.90
2019-06-01T17:46:19.033Z,99.90
2019-06-01T17:48:48.666Z,99.90
2019-06-01T17:51:24.433Z,99.90
2019-06-01T17:53:53.618Z,99.90
2019-06-01T17:56:29.269Z,99.90
2019-06-01T17:58:58.528Z,99.90
2019-06-01T18:01:34.876Z,99.90
2019-06-01T18:04:06.025Z,99.90
2019-06-01T18:06:41.786Z,99.90
2019-06-01T18:09:18.325Z,99.90
2019-06-01T18:11:57.352Z,99.90
2019-06-01T18:14:26.519Z,99.90
2019-06-01T18:17:02.140Z,99.90
2019-06-01T18:19:53.564Z,99.90
2019-06-01T18:22:29.770Z,99.90
2019-06-01T18:24:58.902Z,99.90
2019-06-01T18:27:41.374Z,99.90
2019-06-01T18:30:11.028Z,99.90
2019-06-01T18:32:46.331Z,99.90
2019-06-01T18:35:26.700Z,99.90
2019-06-01T18:38:03.704Z,99.90
2019-06-01T18:40:37.068Z,99.90
2019-06-01T18:43:16.462Z,99.90
2019-06-01T18:45:46.195Z,99.90
2019-06-01T18:48:22.479Z,99.90
2019-06-01T18:50:51.711Z,99.90
2019-06-01T18:53:27.816Z,99.90
2019-06-01T18:55:57.041Z,99.90
2019-06-01T18:58:32.831Z,99.90
2019-06-01T19:01:01.966Z,99.90
2019-06-01T19:03:32.893Z,99.90
2019-06-01T19:06:09.582Z,99.90
2019-06-01T19:08:46.185Z,99.90
2019-06-01T19:11:35.711Z,99.90
2019-06-01T19:13:59.903Z,99.90
2019-06-01T19:16:35.718Z,99.90
2019-06-01T19:19:06.242Z,99.90
2019-06-01T19:21:41.696Z,99.90
2019-06-01T19:24:10.845Z,99.90
2019-06-01T19:26:52.669Z,99.90
2019-06-01T19:29:23.904Z,99.90
2019-06-01T19:31:59.326Z,99.90
2019-06-01T19:34:28.673Z,99.90
2019-06-01T19:37:00.434Z,99.90
2019-06-01T19:39:37.770Z,99.90
2019-06-01T19:42:07.195Z,99.90
2019-06-01T19:44:43.573Z,99.90
2019-06-01T19:47:13.824Z,99.90
2019-06-01T19:49:44.043Z,99.90
2019-06-01T19:52:20.508Z,99.90
2019-06-01T19:54:50.124Z,99.90
2019-06-01T19:57:26.151Z,99.90
2019-06-01T19:59:55.263Z,99.90
2019-06-01T20:02:33.904Z,99.90
2019-06-01T20:05:01.896Z,99.90
2019-06-01T20:07:37.675Z,99.90
2019-06-01T20:10:14.409Z,99.90
2019-06-01T20:12:50.348Z,99.90
2019-06-01T20:15:19.716Z,99.90
2019-06-01T20:17:56.075Z,99.90
2019-06-01T20:20:25.354Z,99.90
2019-06-01T20:23:02.598Z,99.90
2019-06-01T20:25:34.422Z,99.90
2019-06-01T20:28:18.107Z,99.90
2019-06-01T20:30:47.334Z,99.90
2019-06-01T20:33:23.906Z,99.90
2019-06-01T20:35:53.212Z,99.90
2019-06-01T20:38:28.980Z,99.90
2019-06-01T20:40:58.100Z,99.90
2019-06-01T20:43:27.857Z,99.90
2019-06-01T20:46:03.776Z,99.90
2019-06-01T20:48:35.424Z,99.90
2019-06-01T20:51:14.673Z,99.90
2019-06-01T20:53:45.269Z,99.90
2019-06-01T20:56:21.461Z,99.90
2019-06-01T20:58:51.034Z,99.90
2019-06-01T21:01:26.836Z,99.90
2019-06-01T21:03:56.162Z,99.90
2019-06-01T21:06:25.423Z,99.90
2019-06-01T21:09:00.960Z,99.90
2019-06-01T21:11:39.941Z,99.90
2019-06-01T21:14:22.752Z,99.90
2019-06-01T21:16:52.019Z,99.90
2019-06-01T21:19:22.390Z,99.90
2019-06-01T21:21:59.195Z,99.90
2019-06-01T21:24:28.403Z,99.90
2019-06-01T21:27:11.778Z,99.90
2019-06-01T21:29:41.836Z,99.90
2019-06-01T21:32:11.122Z,99.90
2019-06-01T21:34:47.112Z,99.90
2019-06-01T21:37:17.648Z,99.90
2019-06-01T21:39:54.073Z,99.90
2019-06-01T21:42:23.647Z,99.90
2019-06-01T21:44:59.777Z,99.90
2019-06-01T21:47:33.293Z,99.90
2019-06-01T21:50:11.302Z,99.90
2019-06-01T21:52:44.562Z,99.90
2019-06-01T21:55:22.181Z,99.90
2019-06-01T21:57:54.325Z,99.90
2019-06-01T22:00:37.632Z,99.90
2019-06-01T22:03:08.650Z,99.90
2019-06-01T22:05:37.886Z,99.90
2019-06-01T22:08:13.830Z,99.90
2019-06-01T22:10:49.972Z,99.90
2019-06-01T22:13:32.810Z,99.90
2019-06-01T22:16:02.149Z,99.90
2019-06-01T22:18:31.502Z,99.90
2019-06-01T22:21:07.148Z,99.90
2019-06-01T22:23:36.755Z,99.90
2019-06-01T22:26:14.412Z,99.90
2019-06-01T22:28:50.490Z,99.90
2019-06-01T22:31:28.582Z,99.90
2019-06-01T22:33:58.054Z,99.90
2019-06-01T22:36:33.694Z,99.90
2019-06-01T22:39:03.235Z,99.90
2019-06-01T22:41:33.322Z,99.90
2019-06-01T22:44:09.222Z,99.90
2019-06-01T22:46:38.489Z,99.90
2019-06-01T22:49:14.618Z,99.90
2019-06-01T22:51:44.088Z,99.90
2019-06-01T22:54:21.070Z,99.90
2019-06-01T22:56:54.819Z,99.90
2019-06-01T22:59:31.133Z,99.90
2019-06-01T23:02:01.614Z,99.90
2019-06-01T23:04:32.602Z,99.90
2019-06-01T23:07:09.166Z,99.90
2019-06-01T23:09:38.526Z,99.90
2019-06-01T23:12:23.344Z,99.90
2019-06-01T23:15:00.162Z,99.90
2019-06-01T23:17:35.677Z,99.90
2019-06-01T23:20:07.196Z,99.90
2019-06-01T23:22:45.658Z,99.90
2019-06-01T23:25:22.519Z,99.90
2019-06-01T23:27:58.840Z,99.90
2019-06-01T23:30:28.370Z,99.90
2019-06-01T23:33:04.237Z,99.90
2019-06-01T23:35:33.505Z,99.90
2019-06-01T23:38:02.664Z,99.90
2019-06-01T23:40:38.499Z,99.90
2019-06-01T23:43:07.670Z,99.90
2019-06-01T23:45:49.000Z,99.90
2019-06-01T23:48:18.396Z,99.90
2019-06-01T23:50:54.378Z,99.90
2019-06-01T23:53:23.532Z,99.90
2019-06-01T23:55:59.175Z,99.90
2019-06-01T23:58:28.495Z,99.90
